createdAt,value
2022-09-06T06:23:51.123Z,24.20
2022-09-06T06:38:56.612Z,25.90
2022-09-06T06:54:01.204Z,27.00
2022-09-06T07:09:05.818Z,27.50
2022-09-06T07:24:10.724Z,27.60
2022-09-06T07:39:15.481Z,27.80
2022-09-06T07:54:30.471Z,28.10
2022-09-06T08:09:35.591Z,28.40
2022-09-06T08:24:40.171Z,28.60
2022-09-06T08:39:44.848Z,28.90
2022-09-06T08:54:57.766Z,29.20
2022-09-06T09:10:06.183Z,29.50
2022-09-06T09:25:17.526Z,29.60
2022-09-06T09:40:33.433Z,29.70
2022-09-06T09:55:38.306Z,29.80
2022-09-06T10:10:47.825Z,29.60
2022-09-06T10:26:01.959Z,29.70
2022-09-06T10:41:26.146Z,29.60
2022-09-06T10:56:36.995Z,29.80
2022-09-06T11:11:48.640Z,29.90
2022-09-06T11:27:05.771Z,29.90
2022-09-06T11:42:31.310Z,30.00
2022-09-06T11:57:36.118Z,30.10
2022-09-06T12:12:48.089Z,30.10
2022-09-06T12:27:57.958Z,30.10
2022-09-06T12:43:04.514Z,30.20
2022-09-06T12:58:11.264Z,30.20
2022-09-06T13:13:23.366Z,30.20
2022-09-06T13:28:30.515Z,30.30
2022-09-06T13:43:43.575Z,30.40
2022-09-06T13:58:48.411Z,30.40
2022-09-06T14:13:53.042Z,30.50
2022-09-06T14:28:57.612Z,30.50
2022-09-06T14:44:02.272Z,30.60
2022-09-06T14:59:07.216Z,30.70
2022-09-06T15:14:15.297Z,30.80
2022-09-06T15:29:21.359Z,30.80
2022-09-06T15:44:26.410Z,30.90
2022-09-06T15:59:31.587Z,30.90
2022-09-06T16:14:36.227Z,30.90
2022-09-06T16:29:41.284Z,31.00
2022-09-06T16:44:45.942Z,31.00
2022-09-06T16:59:51.272Z,31.00
2022-09-06T17:14:56.160Z,31.00
2022-09-06T17:30:00.859Z,31.00
2022-09-06T17:45:05.900Z,31.00
2022-09-06T18:00:15.596Z,30.90
2022-09-06T18:15:20.327Z,30.80
